sensor_id;sensor_type;location;lat;lon;timestamp;P1;durP1;ratioP1;P2;durP2;ratioP2
23410;SDS011;11878;51.774;7.220;2023-03-08T00:00:06;16.50;;;7.43;;
23410;SDS011;11878;51.774;7.220;2023-03-08T00:03:15;12.13;;;7.47;;
23410;SDS011;11878;51.774;7.220;2023-03-08T00:06:17;11.20;;;6.60;;
23410;SDS011;11878;51.774;7.220;2023-03-08T00:09:19;13.20;;;6.77;;
23410;SDS011;11878;51.774;7.220;2023-03-08T00:12:21;9.63;;;6.20;;
23410;SDS011;11878;51.774;7.220;2023-03-08T00:15:23;15.03;;;7.47;;
23410;SDS011;11878;51.774;7.220;2023-03-08T00:18:25;13.60;;;7.67;;
23410;SDS011;11878;51.774;7.220;2023-03-08T00:21:27;15.90;;;8.30;;
23410;SDS011;11878;51.774;7.220;2023-03-08T00:24:29;15.13;;;7.90;;
23410;SDS011;11878;51.774;7.220;2023-03-08T00:27:31;13.40;;;6.57;;
23410;SDS011;11878;51.774;7.220;2023-03-08T00:30:33;17.23;;;8.60;;
23410;SDS011;11878;51.774;7.220;2023-03-08T00:33:35;19.37;;;7.57;;
23410;SDS011;11878;51.774;7.220;2023-03-08T00:36:37;15.10;;;8.10;;
23410;SDS011;11878;51.774;7.220;2023-03-08T00:39:39;14.97;;;7.30;;
23410;SDS011;11878;51.774;7.220;2023-03-08T00:42:40;14.10;;;7.93;;
23410;SDS011;11878;51.774;7.220;2023-03-08T00:45:42;15.60;;;7.87;;
23410;SDS011;11878;51.774;7.220;2023-03-08T00:48:44;20.80;;;8.27;;
23410;SDS011;11878;51.774;7.220;2023-03-08T00:51:48;15.87;;;8.33;;
23410;SDS011;11878;51.774;7.220;2023-03-08T00:54:50;19.50;;;8.43;;
23410;SDS011;11878;51.774;7.220;2023-03-08T00:57:52;18.50;;;8.77;;
23410;SDS011;11878;51.774;7.220;2023-03-08T01:00:53;15.47;;;8.50;;
23410;SDS011;11878;51.774;7.220;2023-03-08T01:03:56;16.83;;;8.23;;
23410;SDS011;11878;51.774;7.220;2023-03-08T01:06:58;18.63;;;9.33;;
23410;SDS011;11878;51.774;7.220;2023-03-08T01:10:01;17.87;;;8.17;;
23410;SDS011;11878;51.774;7.220;2023-03-08T01:13:06;18.90;;;8.87;;
23410;SDS011;11878;51.774;7.220;2023-03-08T01:16:18;17.20;;;9.00;;
23410;SDS011;11878;51.774;7.220;2023-03-08T01:19:22;19.07;;;9.17;;
23410;SDS011;11878;51.774;7.220;2023-03-08T01:22:24;20.87;;;8.90;;
23410;SDS011;11878;51.774;7.220;2023-03-08T01:25:25;15.73;;;8.20;;
23410;SDS011;11878;51.774;7.220;2023-03-08T01:28:27;18.70;;;9.27;;
23410;SDS011;11878;51.774;7.220;2023-03-08T01:31:30;17.30;;;8.47;;
23410;SDS011;11878;51.774;7.220;2023-03-08T01:34:33;16.57;;;8.27;;
23410;SDS011;11878;51.774;7.220;2023-03-08T01:37:36;21.20;;;8.73;;
23410;SDS011;11878;51.774;7.220;2023-03-08T01:40:37;21.60;;;8.93;;
23410;SDS011;11878;51.774;7.220;2023-03-08T01:43:39;20.73;;;10.30;;
23410;SDS011;11878;51.774;7.220;2023-03-08T01:46:42;19.57;;;9.33;;
23410;SDS011;11878;51.774;7.220;2023-03-08T01:49:54;20.27;;;9.37;;
23410;SDS011;11878;51.774;7.220;2023-03-08T01:53:02;18.07;;;9.40;;
23410;SDS011;11878;51.774;7.220;2023-03-08T01:56:08;18.70;;;8.53;;
23410;SDS011;11878;51.774;7.220;2023-03-08T01:59:13;22.13;;;9.13;;
23410;SDS011;11878;51.774;7.220;2023-03-08T02:02:20;18.07;;;9.37;;
23410;SDS011;11878;51.774;7.220;2023-03-08T02:05:29;16.80;;;8.07;;
23410;SDS011;11878;51.774;7.220;2023-03-08T02:08:39;13.00;;;7.23;;
23410;SDS011;11878;51.774;7.220;2023-03-08T02:11:42;16.83;;;8.57;;
23410;SDS011;11878;51.774;7.220;2023-03-08T02:14:44;17.90;;;8.33;;
23410;SDS011;11878;51.774;7.220;2023-03-08T02:17:46;18.67;;;8.47;;
23410;SDS011;11878;51.774;7.220;2023-03-08T02:20:48;23.40;;;8.83;;
23410;SDS011;11878;51.774;7.220;2023-03-08T02:23:50;19.37;;;8.50;;
23410;SDS011;11878;51.774;7.220;2023-03-08T02:26:54;16.17;;;7.50;;
23410;SDS011;11878;51.774;7.220;2023-03-08T02:30:02;19.40;;;8.77;;
23410;SDS011;11878;51.774;7.220;2023-03-08T02:33:04;19.00;;;8.60;;
23410;SDS011;11878;51.774;7.220;2023-03-08T02:36:06;18.53;;;8.47;;
23410;SDS011;11878;51.774;7.220;2023-03-08T02:39:08;15.57;;;8.13;;
23410;SDS011;11878;51.774;7.220;2023-03-08T02:42:10;18.40;;;7.87;;
23410;SDS011;11878;51.774;7.220;2023-03-08T02:45:12;15.10;;;6.47;;
23410;SDS011;11878;51.774;7.220;2023-03-08T02:48:13;20.73;;;7.27;;
23410;SDS011;11878;51.774;7.220;2023-03-08T02:51:16;12.67;;;6.33;;
23410;SDS011;11878;51.774;7.220;2023-03-08T02:54:18;16.63;;;7.00;;
23410;SDS011;11878;51.774;7.220;2023-03-08T02:57:20;16.37;;;6.57;;
23410;SDS011;11878;51.774;7.220;2023-03-08T03:00:23;17.73;;;7.93;;
23410;SDS011;11878;51.774;7.220;2023-03-08T03:03:25;16.53;;;6.90;;
23410;SDS011;11878;51.774;7.220;2023-03-08T03:06:27;19.60;;;8.13;;
23410;SDS011;11878;51.774;7.220;2023-03-08T03:09:30;15.13;;;7.13;;
23410;SDS011;11878;51.774;7.220;2023-03-08T03:12:34;16.23;;;7.67;;
23410;SDS011;11878;51.774;7.220;2023-03-08T03:15:39;16.20;;;6.77;;
23410;SDS011;11878;51.774;7.220;2023-03-08T03:18:42;17.40;;;7.23;;
23410;SDS011;11878;51.774;7.220;2023-03-08T03:21:44;15.47;;;7.20;;
23410;SDS011;11878;51.774;7.220;2023-03-08T03:24:46;15.00;;;6.90;;
23410;SDS011;11878;51.774;7.220;2023-03-08T03:27:50;22.87;;;9.33;;
23410;SDS011;11878;51.774;7.220;2023-03-08T03:30:55;21.53;;;9.07;;
23410;SDS011;11878;51.774;7.220;2023-03-08T03:33:56;16.23;;;8.23;;
23410;SDS011;11878;51.774;7.220;2023-03-08T03:37:00;18.33;;;8.13;;
23410;SDS011;11878;51.774;7.220;2023-03-08T03:40:03;19.07;;;9.00;;
23410;SDS011;11878;51.774;7.220;2023-03-08T03:43:06;20.27;;;9.17;;
23410;SDS011;11878;51.774;7.220;2023-03-08T03:46:09;19.90;;;9.13;;
23410;SDS011;11878;51.774;7.220;2023-03-08T03:49:14;19.40;;;9.37;;
23410;SDS011;11878;51.774;7.220;2023-03-08T03:52:18;22.43;;;9.90;;
23410;SDS011;11878;51.774;7.220;2023-03-08T03:55:28;19.00;;;9.93;;
23410;SDS011;11878;51.774;7.220;2023-03-08T03:58:31;23.17;;;11.20;;
23410;SDS011;11878;51.774;7.220;2023-03-08T04:01:34;25.07;;;11.30;;
23410;SDS011;11878;51.774;7.220;2023-03-08T04:04:50;23.37;;;10.53;;
23410;SDS011;11878;51.774;7.220;2023-03-08T04:07:56;25.23;;;11.20;;
23410;SDS011;11878;51.774;7.220;2023-03-08T04:11:02;31.40;;;11.80;;
23410;SDS011;11878;51.774;7.220;2023-03-08T04:14:05;23.77;;;11.27;;
23410;SDS011;11878;51.774;7.220;2023-03-08T04:17:07;27.03;;;10.63;;
23410;SDS011;11878;51.774;7.220;2023-03-08T04:20:17;26.97;;;10.93;;
23410;SDS011;11878;51.774;7.220;2023-03-08T04:23:26;22.63;;;10.90;;
23410;SDS011;11878;51.774;7.220;2023-03-08T04:26:28;25.87;;;12.23;;
23410;SDS011;11878;51.774;7.220;2023-03-08T04:29:30;27.60;;;11.27;;
23410;SDS011;11878;51.774;7.220;2023-03-08T04:32:32;26.90;;;11.57;;
23410;SDS011;11878;51.774;7.220;2023-03-08T04:35:35;25.40;;;11.47;;
23410;SDS011;11878;51.774;7.220;2023-03-08T04:38:38;23.93;;;10.67;;
23410;SDS011;11878;51.774;7.220;2023-03-08T04:41:40;24.10;;;11.10;;
23410;SDS011;11878;51.774;7.220;2023-03-08T04:44:59;24.80;;;11.17;;
23410;SDS011;11878;51.774;7.220;2023-03-08T04:48:01;26.83;;;11.00;;
23410;SDS011;11878;51.774;7.220;2023-03-08T04:51:05;21.33;;;10.50;;
23410;SDS011;11878;51.774;7.220;2023-03-08T04:54:08;26.37;;;11.27;;
23410;SDS011;11878;51.774;7.220;2023-03-08T04:57:15;24.17;;;10.60;;
23410;SDS011;11878;51.774;7.220;2023-03-08T05:00:20;23.77;;;10.07;;
23410;SDS011;11878;51.774;7.220;2023-03-08T05:03:22;29.50;;;12.37;;
23410;SDS011;11878;51.774;7.220;2023-03-08T05:06:24;25.03;;;12.10;;
23410;SDS011;11878;51.774;7.220;2023-03-08T05:09:29;27.47;;;12.03;;
23410;SDS011;11878;51.774;7.220;2023-03-08T05:12:31;28.43;;;13.53;;
23410;SDS011;11878;51.774;7.220;2023-03-08T05:15:34;25.33;;;13.23;;
23410;SDS011;11878;51.774;7.220;2023-03-08T05:18:36;25.53;;;11.90;;
23410;SDS011;11878;51.774;7.220;2023-03-08T05:21:39;19.47;;;9.50;;
23410;SDS011;11878;51.774;7.220;2023-03-08T05:24:41;22.17;;;11.17;;
23410;SDS011;11878;51.774;7.220;2023-03-08T05:27:46;24.27;;;11.30;;
23410;SDS011;11878;51.774;7.220;2023-03-08T05:30:48;24.90;;;11.73;;
23410;SDS011;11878;51.774;7.220;2023-03-08T05:33:50;35.47;;;12.87;;
23410;SDS011;11878;51.774;7.220;2023-03-08T05:36:59;23.77;;;11.93;;
23410;SDS011;11878;51.774;7.220;2023-03-08T05:40:03;29.53;;;12.23;;
23410;SDS011;11878;51.774;7.220;2023-03-08T05:43:09;29.70;;;12.73;;
23410;SDS011;11878;51.774;7.220;2023-03-08T05:46:16;30.33;;;13.03;;
23410;SDS011;11878;51.774;7.220;2023-03-08T05:49:20;27.80;;;12.73;;
23410;SDS011;11878;51.774;7.220;2023-03-08T05:52:22;25.77;;;11.80;;
23410;SDS011;11878;51.774;7.220;2023-03-08T05:55:24;29.87;;;12.63;;
23410;SDS011;11878;51.774;7.220;2023-03-08T05:58:27;26.93;;;11.90;;
23410;SDS011;11878;51.774;7.220;2023-03-08T06:01:29;27.67;;;12.67;;
23410;SDS011;11878;51.774;7.220;2023-03-08T06:04:39;30.83;;;13.83;;
23410;SDS011;11878;51.774;7.220;2023-03-08T06:07:43;30.50;;;12.67;;
23410;SDS011;11878;51.774;7.220;2023-03-08T06:10:47;27.50;;;12.10;;
23410;SDS011;11878;51.774;7.220;2023-03-08T06:13:49;30.53;;;12.23;;
23410;SDS011;11878;51.774;7.220;2023-03-08T06:16:51;30.80;;;13.10;;
23410;SDS011;11878;51.774;7.220;2023-03-08T06:19:57;30.63;;;12.97;;
23410;SDS011;11878;51.774;7.220;2023-03-08T06:22:59;36.43;;;13.63;;
23410;SDS011;11878;51.774;7.220;2023-03-08T06:26:02;31.23;;;12.87;;
23410;SDS011;11878;51.774;7.220;2023-03-08T06:29:06;37.80;;;13.83;;
23410;SDS011;11878;51.774;7.220;2023-03-08T06:32:07;35.43;;;15.20;;
23410;SDS011;11878;51.774;7.220;2023-03-08T06:35:12;36.50;;;13.33;;
23410;SDS011;11878;51.774;7.220;2023-03-08T06:38:21;31.60;;;12.93;;
23410;SDS011;11878;51.774;7.220;2023-03-08T06:41:22;24.33;;;11.60;;
23410;SDS011;11878;51.774;7.220;2023-03-08T06:44:28;26.47;;;11.63;;
23410;SDS011;11878;51.774;7.220;2023-03-08T06:47:30;31.27;;;13.07;;
23410;SDS011;11878;51.774;7.220;2023-03-08T06:50:33;34.77;;;13.30;;
23410;SDS011;11878;51.774;7.220;2023-03-08T06:53:34;29.90;;;12.97;;
23410;SDS011;11878;51.774;7.220;2023-03-08T06:56:39;29.57;;;14.73;;
23410;SDS011;11878;51.774;7.220;2023-03-08T06:59:41;35.07;;;13.77;;
23410;SDS011;11878;51.774;7.220;2023-03-08T07:02:43;30.03;;;13.87;;
23410;SDS011;11878;51.774;7.220;2023-03-08T07:05:45;35.93;;;14.30;;
23410;SDS011;11878;51.774;7.220;2023-03-08T07:08:46;24.93;;;11.70;;
23410;SDS011;11878;51.774;7.220;2023-03-08T07:11:48;28.73;;;14.67;;
23410;SDS011;11878;51.774;7.220;2023-03-08T07:14:53;24.60;;;12.00;;
23410;SDS011;11878;51.774;7.220;2023-03-08T07:17:55;29.10;;;13.57;;
23410;SDS011;11878;51.774;7.220;2023-03-08T07:20:57;28.63;;;13.47;;
23410;SDS011;11878;51.774;7.220;2023-03-08T07:23:59;30.73;;;13.77;;
23410;SDS011;11878;51.774;7.220;2023-03-08T07:27:00;32.70;;;12.93;;
23410;SDS011;11878;51.774;7.220;2023-03-08T07:30:02;33.73;;;14.37;;
23410;SDS011;11878;51.774;7.220;2023-03-08T07:33:04;32.07;;;14.40;;
23410;SDS011;11878;51.774;7.220;2023-03-08T07:36:06;36.90;;;13.77;;
23410;SDS011;11878;51.774;7.220;2023-03-08T07:39:08;33.77;;;14.83;;
23410;SDS011;11878;51.774;7.220;2023-03-08T07:42:10;31.03;;;10.93;;
23410;SDS011;11878;51.774;7.220;2023-03-08T07:45:12;27.70;;;12.57;;
23410;SDS011;11878;51.774;7.220;2023-03-08T07:48:14;25.83;;;13.20;;
23410;SDS011;11878;51.774;7.220;2023-03-08T07:51:16;32.50;;;14.50;;
23410;SDS011;11878;51.774;7.220;2023-03-08T07:54:18;33.90;;;15.77;;
23410;SDS011;11878;51.774;7.220;2023-03-08T07:57:22;33.93;;;15.93;;
23410;SDS011;11878;51.774;7.220;2023-03-08T08:00:24;30.43;;;13.77;;
23410;SDS011;11878;51.774;7.220;2023-03-08T08:03:27;31.60;;;14.20;;
23410;SDS011;11878;51.774;7.220;2023-03-08T08:06:30;26.23;;;12.17;;
23410;SDS011;11878;51.774;7.220;2023-03-08T08:09:31;26.67;;;13.87;;
23410;SDS011;11878;51.774;7.220;2023-03-08T08:12:34;67.30;;;28.27;;
23410;SDS011;11878;51.774;7.220;2023-03-08T08:15:35;26.73;;;11.23;;
23410;SDS011;11878;51.774;7.220;2023-03-08T08:18:37;23.77;;;10.23;;
23410;SDS011;11878;51.774;7.220;2023-03-08T08:21:40;23.63;;;10.70;;
23410;SDS011;11878;51.774;7.220;2023-03-08T08:24:41;25.90;;;11.70;;
23410;SDS011;11878;51.774;7.220;2023-03-08T08:27:43;30.77;;;11.63;;
23410;SDS011;11878;51.774;7.220;2023-03-08T08:30:53;22.90;;;10.60;;
23410;SDS011;11878;51.774;7.220;2023-03-08T08:33:56;22.63;;;10.07;;
23410;SDS011;11878;51.774;7.220;2023-03-08T08:36:59;22.50;;;10.27;;
23410;SDS011;11878;51.774;7.220;2023-03-08T08:40:01;26.60;;;9.60;;
23410;SDS011;11878;51.774;7.220;2023-03-08T08:43:04;22.33;;;9.70;;
23410;SDS011;11878;51.774;7.220;2023-03-08T08:46:05;16.77;;;8.47;;
23410;SDS011;11878;51.774;7.220;2023-03-08T08:49:08;21.73;;;9.20;;
23410;SDS011;11878;51.774;7.220;2023-03-08T08:52:10;19.70;;;9.23;;
23410;SDS011;11878;51.774;7.220;2023-03-08T08:55:12;14.27;;;6.93;;
23410;SDS011;11878;51.774;7.220;2023-03-08T08:58:14;13.00;;;5.73;;
23410;SDS011;11878;51.774;7.220;2023-03-08T09:01:17;9.10;;;4.77;;
23410;SDS011;11878;51.774;7.220;2023-03-08T09:04:20;9.57;;;4.40;;
23410;SDS011;11878;51.774;7.220;2023-03-08T09:07:22;9.60;;;4.37;;
23410;SDS011;11878;51.774;7.220;2023-03-08T09:10:24;10.50;;;3.80;;
23410;SDS011;11878;51.774;7.220;2023-03-08T09:13:29;9.53;;;4.83;;
23410;SDS011;11878;51.774;7.220;2023-03-08T09:16:31;11.30;;;4.90;;
23410;SDS011;11878;51.774;7.220;2023-03-08T09:19:34;9.70;;;4.70;;
23410;SDS011;11878;51.774;7.220;2023-03-08T09:22:36;8.33;;;3.47;;
23410;SDS011;11878;51.774;7.220;2023-03-08T09:25:38;11.10;;;5.13;;
23410;SDS011;11878;51.774;7.220;2023-03-08T09:28:40;19.30;;;6.60;;
23410;SDS011;11878;51.774;7.220;2023-03-08T09:31:42;12.30;;;6.10;;
23410;SDS011;11878;51.774;7.220;2023-03-08T09:34:45;13.07;;;5.30;;
23410;SDS011;11878;51.774;7.220;2023-03-08T09:37:47;12.33;;;5.33;;
23410;SDS011;11878;51.774;7.220;2023-03-08T09:40:57;11.07;;;4.93;;
23410;SDS011;11878;51.774;7.220;2023-03-08T09:44:43;12.20;;;5.73;;
23410;SDS011;11878;51.774;7.220;2023-03-08T09:50:55;9.83;;;4.37;;
23410;SDS011;11878;51.774;7.220;2023-03-08T09:54:05;6.97;;;3.47;;
23410;SDS011;11878;51.774;7.220;2023-03-08T09:57:13;9.03;;;4.27;;
23410;SDS011;11878;51.774;7.220;2023-03-08T10:00:19;7.57;;;4.00;;
23410;SDS011;11878;51.774;7.220;2023-03-08T10:03:47;9.10;;;4.33;;
23410;SDS011;11878;51.774;7.220;2023-03-08T10:07:14;9.00;;;3.97;;
23410;SDS011;11878;51.774;7.220;2023-03-08T10:10:37;6.97;;;3.57;;
23410;SDS011;11878;51.774;7.220;2023-03-08T10:14:20;6.97;;;3.63;;
23410;SDS011;11878;51.774;7.220;2023-03-08T10:17:33;6.33;;;3.70;;
23410;SDS011;11878;51.774;7.220;2023-03-08T10:20:44;7.60;;;4.40;;
23410;SDS011;11878;51.774;7.220;2023-03-08T10:24:03;6.83;;;3.73;;
23410;SDS011;11878;51.774;7.220;2023-03-08T10:27:23;4.83;;;3.07;;
23410;SDS011;11878;51.774;7.220;2023-03-08T10:30:40;10.47;;;4.70;;
23410;SDS011;11878;51.774;7.220;2023-03-08T10:33:48;7.13;;;3.87;;
23410;SDS011;11878;51.774;7.220;2023-03-08T10:36:57;5.90;;;3.57;;
23410;SDS011;11878;51.774;7.220;2023-03-08T10:40:05;6.67;;;3.57;;
23410;SDS011;11878;51.774;7.220;2023-03-08T10:43:15;9.57;;;4.70;;
23410;SDS011;11878;51.774;7.220;2023-03-08T10:46:29;6.60;;;3.67;;
23410;SDS011;11878;51.774;7.220;2023-03-08T10:49:33;7.90;;;3.37;;
23410;SDS011;11878;51.774;7.220;2023-03-08T10:52:34;5.63;;;3.20;;
23410;SDS011;11878;51.774;7.220;2023-03-08T10:55:46;4.10;;;2.50;;
23410;SDS011;11878;51.774;7.220;2023-03-08T10:58:53;3.73;;;2.23;;
23410;SDS011;11878;51.774;7.220;2023-03-08T11:01:58;4.60;;;2.50;;
23410;SDS011;11878;51.774;7.220;2023-03-08T11:05:15;3.83;;;2.47;;
23410;SDS011;11878;51.774;7.220;2023-03-08T11:08:24;3.00;;;1.90;;
23410;SDS011;11878;51.774;7.220;2023-03-08T11:11:40;4.97;;;2.60;;
23410;SDS011;11878;51.774;7.220;2023-03-08T11:14:42;4.03;;;2.40;;
23410;SDS011;11878;51.774;7.220;2023-03-08T11:31:34;4.33;;;2.80;;
23410;SDS011;11878;51.774;7.220;2023-03-08T11:35:06;3.17;;;2.33;;
23410;SDS011;11878;51.774;7.220;2023-03-08T11:38:23;5.20;;;2.40;;
23410;SDS011;11878;51.774;7.220;2023-03-08T11:41:41;3.10;;;2.27;;
23410;SDS011;11878;51.774;7.220;2023-03-08T11:54:42;7.43;;;3.77;;
23410;SDS011;11878;51.774;7.220;2023-03-08T12:01:29;6.17;;;2.70;;
23410;SDS011;11878;51.774;7.220;2023-03-08T12:04:37;4.43;;;2.47;;
23410;SDS011;11878;51.774;7.220;2023-03-08T12:07:47;3.53;;;2.40;;
23410;SDS011;11878;51.774;7.220;2023-03-08T12:10:57;4.13;;;2.60;;
23410;SDS011;11878;51.774;7.220;2023-03-08T12:14:13;2.90;;;1.90;;
23410;SDS011;11878;51.774;7.220;2023-03-08T12:17:23;2.93;;;1.83;;
23410;SDS011;11878;51.774;7.220;2023-03-08T12:20:30;3.67;;;1.63;;
23410;SDS011;11878;51.774;7.220;2023-03-08T12:23:44;2.67;;;1.47;;
23410;SDS011;11878;51.774;7.220;2023-03-08T12:27:29;1.77;;;1.20;;
23410;SDS011;11878;51.774;7.220;2023-03-08T12:34:29;2.00;;;1.17;;
23410;SDS011;11878;51.774;7.220;2023-03-08T12:37:53;1.13;;;0.97;;
23410;SDS011;11878;51.774;7.220;2023-03-08T12:40:56;1.73;;;1.03;;
23410;SDS011;11878;51.774;7.220;2023-03-08T12:43:59;3.47;;;1.10;;
23410;SDS011;11878;51.774;7.220;2023-03-08T12:47:20;2.37;;;1.00;;
23410;SDS011;11878;51.774;7.220;2023-03-08T12:50:23;1.50;;;1.27;;
23410;SDS011;11878;51.774;7.220;2023-03-08T12:56:47;3.93;;;1.50;;
23410;SDS011;11878;51.774;7.220;2023-03-08T12:59:54;1.93;;;1.20;;
23410;SDS011;11878;51.774;7.220;2023-03-08T13:16:16;2.33;;;1.23;;
23410;SDS011;11878;51.774;7.220;2023-03-08T13:19:25;4.73;;;1.40;;
23410;SDS011;11878;51.774;7.220;2023-03-08T13:29:11;3.20;;;1.27;;
23410;SDS011;11878;51.774;7.220;2023-03-08T13:32:17;3.33;;;1.70;;
23410;SDS011;11878;51.774;7.220;2023-03-08T13:35:21;3.53;;;1.83;;
23410;SDS011;11878;51.774;7.220;2023-03-08T13:38:23;2.17;;;1.33;;
23410;SDS011;11878;51.774;7.220;2023-03-08T13:41:44;4.53;;;1.70;;
23410;SDS011;11878;51.774;7.220;2023-03-08T13:44:47;2.77;;;1.80;;
23410;SDS011;11878;51.774;7.220;2023-03-08T13:47:50;4.60;;;2.30;;
23410;SDS011;11878;51.774;7.220;2023-03-08T13:50:53;5.27;;;2.73;;
23410;SDS011;11878;51.774;7.220;2023-03-08T13:53:55;4.83;;;2.07;;
23410;SDS011;11878;51.774;7.220;2023-03-08T13:56:57;7.93;;;3.73;;
23410;SDS011;11878;51.774;7.220;2023-03-08T14:00:15;7.07;;;3.77;;
23410;SDS011;11878;51.774;7.220;2023-03-08T14:03:29;6.07;;;3.23;;
23410;SDS011;11878;51.774;7.220;2023-03-08T14:06:32;5.97;;;3.37;;
23410;SDS011;11878;51.774;7.220;2023-03-08T14:09:35;7.47;;;2.73;;
23410;SDS011;11878;51.774;7.220;2023-03-08T14:12:38;6.67;;;3.00;;
23410;SDS011;11878;51.774;7.220;2023-03-08T14:15:46;6.23;;;3.40;;
23410;SDS011;11878;51.774;7.220;2023-03-08T14:18:49;6.53;;;2.70;;
23410;SDS011;11878;51.774;7.220;2023-03-08T14:21:53;5.33;;;2.83;;
23410;SDS011;11878;51.774;7.220;2023-03-08T14:25:27;5.67;;;3.37;;
23410;SDS011;11878;51.774;7.220;2023-03-08T14:28:37;6.33;;;2.90;;
23410;SDS011;11878;51.774;7.220;2023-03-08T14:35:26;4.57;;;3.07;;
23410;SDS011;11878;51.774;7.220;2023-03-08T14:38:32;5.90;;;3.57;;
23410;SDS011;11878;51.774;7.220;2023-03-08T14:41:35;7.63;;;3.27;;
23410;SDS011;11878;51.774;7.220;2023-03-08T14:44:37;4.97;;;2.30;;
23410;SDS011;11878;51.774;7.220;2023-03-08T14:47:46;4.10;;;2.50;;
23410;SDS011;11878;51.774;7.220;2023-03-08T14:51:04;5.70;;;2.70;;
23410;SDS011;11878;51.774;7.220;2023-03-08T14:54:33;7.90;;;3.20;;
23410;SDS011;11878;51.774;7.220;2023-03-08T14:57:36;6.77;;;2.80;;
23410;SDS011;11878;51.774;7.220;2023-03-08T15:00:51;6.27;;;3.40;;
23410;SDS011;11878;51.774;7.220;2023-03-08T15:03:55;5.20;;;2.70;;
23410;SDS011;11878;51.774;7.220;2023-03-08T15:06:57;6.93;;;2.90;;
23410;SDS011;11878;51.774;7.220;2023-03-08T15:09:59;6.97;;;3.17;;
23410;SDS011;11878;51.774;7.220;2023-03-08T15:13:04;6.03;;;2.60;;
23410;SDS011;11878;51.774;7.220;2023-03-08T15:16:10;5.80;;;3.03;;
23410;SDS011;11878;51.774;7.220;2023-03-08T15:19:14;4.27;;;2.73;;
23410;SDS011;11878;51.774;7.220;2023-03-08T15:22:16;5.20;;;2.50;;
23410;SDS011;11878;51.774;7.220;2023-03-08T15:25:22;5.63;;;2.83;;
23410;SDS011;11878;51.774;7.220;2023-03-08T15:28:25;4.07;;;2.57;;
23410;SDS011;11878;51.774;7.220;2023-03-08T15:31:26;4.80;;;2.73;;
23410;SDS011;11878;51.774;7.220;2023-03-08T15:34:28;4.00;;;2.40;;
23410;SDS011;11878;51.774;7.220;2023-03-08T15:37:30;13.77;;;3.50;;
23410;SDS011;11878;51.774;7.220;2023-03-08T15:40:33;3.77;;;2.37;;
23410;SDS011;11878;51.774;7.220;2023-03-08T15:43:35;4.87;;;2.80;;
23410;SDS011;11878;51.774;7.220;2023-03-08T15:46:37;4.33;;;2.77;;
23410;SDS011;11878;51.774;7.220;2023-03-08T15:49:40;5.20;;;2.97;;
23410;SDS011;11878;51.774;7.220;2023-03-08T15:52:42;4.10;;;2.60;;
23410;SDS011;11878;51.774;7.220;2023-03-08T15:55:44;7.60;;;4.30;;
23410;SDS011;11878;51.774;7.220;2023-03-08T15:58:46;10.17;;;4.17;;
23410;SDS011;11878;51.774;7.220;2023-03-08T16:01:48;5.80;;;3.57;;
23410;SDS011;11878;51.774;7.220;2023-03-08T16:04:49;6.63;;;3.70;;
23410;SDS011;11878;51.774;7.220;2023-03-08T16:07:57;5.13;;;2.70;;
23410;SDS011;11878;51.774;7.220;2023-03-08T16:11:00;7.27;;;3.90;;
23410;SDS011;11878;51.774;7.220;2023-03-08T16:14:04;6.77;;;3.97;;
23410;SDS011;11878;51.774;7.220;2023-03-08T16:17:06;8.97;;;4.10;;
23410;SDS011;11878;51.774;7.220;2023-03-08T16:20:09;5.90;;;3.43;;
23410;SDS011;11878;51.774;7.220;2023-03-08T16:23:12;5.40;;;3.50;;
23410;SDS011;11878;51.774;7.220;2023-03-08T16:26:14;5.33;;;3.13;;
23410;SDS011;11878;51.774;7.220;2023-03-08T16:29:18;8.03;;;3.40;;
23410;SDS011;11878;51.774;7.220;2023-03-08T16:32:20;5.00;;;3.27;;
23410;SDS011;11878;51.774;7.220;2023-03-08T16:35:22;5.40;;;3.10;;
23410;SDS011;11878;51.774;7.220;2023-03-08T16:38:24;8.17;;;4.67;;
23410;SDS011;11878;51.774;7.220;2023-03-08T16:41:25;25.53;;;10.03;;
23410;SDS011;11878;51.774;7.220;2023-03-08T16:44:30;16.83;;;8.17;;
23410;SDS011;11878;51.774;7.220;2023-03-08T16:47:31;18.47;;;8.47;;
23410;SDS011;11878;51.774;7.220;2023-03-08T16:50:33;8.27;;;4.03;;
23410;SDS011;11878;51.774;7.220;2023-03-08T16:53:35;6.60;;;3.90;;
23410;SDS011;11878;51.774;7.220;2023-03-08T16:56:37;7.33;;;3.23;;
23410;SDS011;11878;51.774;7.220;2023-03-08T16:59:41;5.17;;;2.83;;
23410;SDS011;11878;51.774;7.220;2023-03-08T17:02:43;4.13;;;2.00;;
23410;SDS011;11878;51.774;7.220;2023-03-08T17:05:45;5.17;;;2.53;;
23410;SDS011;11878;51.774;7.220;2023-03-08T17:08:48;4.80;;;2.80;;
23410;SDS011;11878;51.774;7.220;2023-03-08T17:11:50;4.27;;;2.20;;
23410;SDS011;11878;51.774;7.220;2023-03-08T17:14:51;4.87;;;2.87;;
23410;SDS011;11878;51.774;7.220;2023-03-08T17:17:53;5.73;;;2.70;;
23410;SDS011;11878;51.774;7.220;2023-03-08T17:20:56;5.67;;;2.50;;
23410;SDS011;11878;51.774;7.220;2023-03-08T17:23:58;4.03;;;2.40;;
23410;SDS011;11878;51.774;7.220;2023-03-08T17:27:00;4.80;;;3.00;;
23410;SDS011;11878;51.774;7.220;2023-03-08T17:30:02;6.17;;;3.13;;
23410;SDS011;11878;51.774;7.220;2023-03-08T17:33:05;5.63;;;2.80;;
23410;SDS011;11878;51.774;7.220;2023-03-08T17:36:07;11.17;;;4.60;;
23410;SDS011;11878;51.774;7.220;2023-03-08T17:39:10;5.37;;;2.87;;
23410;SDS011;11878;51.774;7.220;2023-03-08T17:42:11;6.00;;;3.63;;
23410;SDS011;11878;51.774;7.220;2023-03-08T17:45:13;7.03;;;3.13;;
23410;SDS011;11878;51.774;7.220;2023-03-08T17:48:16;6.90;;;4.30;;
23410;SDS011;11878;51.774;7.220;2023-03-08T17:51:19;6.80;;;3.33;;
23410;SDS011;11878;51.774;7.220;2023-03-08T17:54:22;7.57;;;3.63;;
23410;SDS011;11878;51.774;7.220;2023-03-08T17:57:24;6.30;;;3.23;;
23410;SDS011;11878;51.774;7.220;2023-03-08T18:00:26;5.10;;;3.00;;
23410;SDS011;11878;51.774;7.220;2023-03-08T18:03:28;8.10;;;4.67;;
23410;SDS011;11878;51.774;7.220;2023-03-08T18:06:31;9.17;;;4.47;;
23410;SDS011;11878;51.774;7.220;2023-03-08T18:09:34;6.50;;;3.33;;
23410;SDS011;11878;51.774;7.220;2023-03-08T18:12:36;5.87;;;3.30;;
23410;SDS011;11878;51.774;7.220;2023-03-08T18:15:38;8.00;;;4.13;;
23410;SDS011;11878;51.774;7.220;2023-03-08T18:18:40;8.47;;;4.33;;
23410;SDS011;11878;51.774;7.220;2023-03-08T18:21:41;7.63;;;4.30;;
23410;SDS011;11878;51.774;7.220;2023-03-08T18:24:43;7.47;;;4.10;;
23410;SDS011;11878;51.774;7.220;2023-03-08T18:27:45;6.77;;;3.80;;
23410;SDS011;11878;51.774;7.220;2023-03-08T18:30:47;6.50;;;4.20;;
23410;SDS011;11878;51.774;7.220;2023-03-08T18:33:49;13.83;;;4.83;;
23410;SDS011;11878;51.774;7.220;2023-03-08T18:36:54;11.63;;;5.73;;
23410;SDS011;11878;51.774;7.220;2023-03-08T18:39:58;11.57;;;7.60;;
23410;SDS011;11878;51.774;7.220;2023-03-08T18:43:00;12.13;;;6.67;;
23410;SDS011;11878;51.774;7.220;2023-03-08T18:46:03;9.30;;;5.70;;
23410;SDS011;11878;51.774;7.220;2023-03-08T18:49:08;14.20;;;7.33;;
23410;SDS011;11878;51.774;7.220;2023-03-08T18:52:11;7.63;;;4.80;;
23410;SDS011;11878;51.774;7.220;2023-03-08T18:55:13;9.30;;;5.03;;
23410;SDS011;11878;51.774;7.220;2023-03-08T18:58:15;7.07;;;4.67;;
23410;SDS011;11878;51.774;7.220;2023-03-08T19:01:17;8.33;;;5.33;;
23410;SDS011;11878;51.774;7.220;2023-03-08T19:04:19;9.83;;;5.63;;
23410;SDS011;11878;51.774;7.220;2023-03-08T19:07:21;14.90;;;7.30;;
23410;SDS011;11878;51.774;7.220;2023-03-08T19:10:22;10.70;;;6.10;;
23410;SDS011;11878;51.774;7.220;2023-03-08T19:13:24;11.73;;;7.97;;
23410;SDS011;11878;51.774;7.220;2023-03-08T19:16:27;8.13;;;5.03;;
23410;SDS011;11878;51.774;7.220;2023-03-08T19:19:31;9.30;;;5.07;;